createdAt,value
2022-12-15T00:09:17.727Z,25.27
2022-12-15T00:11:47.074Z,23.13
2022-12-15T00:14:13.672Z,23.83
2022-12-15T00:16:40.688Z,22.83
2022-12-15T00:19:07.291Z,21.30
2022-12-15T00:21:34.268Z,24.13
2022-12-15T00:24:01.159Z,21.93
2022-12-15T00:26:29.529Z,23.63
2022-12-15T00:28:56.315Z,22.60
2022-12-15T00:31:23.416Z,25.63
2022-12-15T00:33:50.046Z,21.57
2022-12-15T00:36:16.716Z,22.57
2022-12-15T00:38:43.377Z,25.33
2022-12-15T00:41:16.010Z,26.90
2022-12-15T00:43:43.692Z,24.53
2022-12-15T00:46:10.691Z,23.30
2022-12-15T00:48:38.556Z,23.90
2022-12-15T00:51:05.231Z,24.33
2022-12-15T00:53:32.442Z,23.97
2022-12-15T00:55:59.385Z,26.10
2022-12-15T00:58:26.090Z,23.00
2022-12-15T01:00:52.714Z,22.03
2022-12-15T01:03:22.431Z,22.30
2022-12-15T01:05:49.128Z,22.17
2022-12-15T01:08:15.880Z,25.53
2022-12-15T01:10:42.498Z,26.03
2022-12-15T01:13:13.419Z,24.90
2022-12-15T01:15:40.420Z,22.33
2022-12-15T01:18:07.056Z,25.77
2022-12-15T01:20:33.765Z,24.63
2022-12-15T01:23:00.689Z,23.67
2022-12-15T01:25:27.409Z,25.13
2022-12-15T01:27:54.223Z,26.60
2022-12-15T01:30:26.361Z,25.67
2022-12-15T01:32:53.654Z,28.53
2022-12-15T01:35:20.617Z,27.73
2022-12-15T01:37:50.266Z,24.33
2022-12-15T01:40:19.331Z,26.17
2022-12-15T01:42:46.297Z,30.47
2022-12-15T01:45:31.491Z,28.37
2022-12-15T01:48:09.296Z,28.60
2022-12-15T01:50:58.618Z,26.87
2022-12-15T01:53:27.145Z,28.07
2022-12-15T01:55:54.382Z,28.20
2022-12-15T01:58:22.718Z,28.47
2022-12-15T02:00:49.404Z,25.87
2022-12-15T02:03:16.339Z,25.90
2022-12-15T02:05:43.126Z,23.40
2022-12-15T02:08:10.594Z,26.87
2022-12-15T02:10:49.336Z,29.17
2022-12-15T02:13:35.120Z,25.07
2022-12-15T02:16:12.478Z,24.90
2022-12-15T02:18:59.366Z,24.73
2022-12-15T02:21:58.481Z,25.17
2022-12-15T02:24:56.963Z,24.73
2022-12-15T02:27:48.796Z,23.70
2022-12-15T02:30:20.431Z,23.60
2022-12-15T02:33:27.191Z,27.07
2022-12-15T02:36:00.080Z,24.63
2022-12-15T02:38:38.528Z,24.40
2022-12-15T02:41:26.660Z,24.80
2022-12-15T02:43:53.614Z,28.80
2022-12-15T02:46:46.080Z,25.27
2022-12-15T02:49:30.249Z,24.07
2022-12-15T02:52:34.317Z,25.67
2022-12-15T02:55:38.990Z,24.60
2022-12-15T02:58:30.438Z,26.27
2022-12-15T03:01:19.616Z,24.53
2022-12-15T03:03:48.408Z,24.00
2022-12-15T03:06:16.780Z,25.03
2022-12-15T03:08:43.667Z,23.20
2022-12-15T03:11:10.392Z,26.27
2022-12-15T03:13:37.070Z,22.67
2022-12-15T03:16:03.858Z,24.77
2022-12-15T03:18:30.594Z,25.23
2022-12-15T03:20:57.212Z,24.23
2022-12-15T03:23:24.742Z,27.87
2022-12-15T03:25:51.439Z,26.03
2022-12-15T03:28:18.355Z,25.10
2022-12-15T03:30:45.497Z,23.57
2022-12-15T03:33:17.648Z,23.60
2022-12-15T03:35:44.393Z,22.43
2022-12-15T03:38:11.148Z,21.63
2022-12-15T03:40:37.711Z,24.77
2022-12-15T03:43:04.538Z,26.20
2022-12-15T03:45:31.325Z,26.30
2022-12-15T03:47:58.074Z,24.33
2022-12-15T03:50:27.080Z,24.13
2022-12-15T03:52:59.345Z,23.33
2022-12-15T03:55:26.662Z,20.63
2022-12-15T03:57:53.238Z,22.03
2022-12-15T04:00:21.722Z,22.63
2022-12-15T04:02:50.870Z,21.93
2022-12-15T04:05:20.640Z,20.33
2022-12-15T04:07:47.310Z,22.60
2022-12-15T04:10:14.881Z,23.13
2022-12-15T04:12:41.725Z,24.47
2022-12-15T04:15:10.409Z,24.30
2022-12-15T04:17:37.135Z,25.90
2022-12-15T04:20:05.347Z,25.03
2022-12-15T04:22:31.970Z,22.83
2022-12-15T04:24:58.633Z,23.90
2022-12-15T04:27:25.233Z,23.40
2022-12-15T04:29:52.101Z,22.63
2022-12-15T04:32:18.826Z,24.20
2022-12-15T04:34:45.491Z,21.73
2022-12-15T04:37:14.291Z,24.07
2022-12-15T04:39:44.143Z,24.33
2022-12-15T04:42:10.886Z,22.10
2022-12-15T04:44:37.759Z,23.67
2022-12-15T04:47:04.435Z,23.03
2022-12-15T04:49:31.129Z,20.77
2022-12-15T04:51:57.879Z,22.80
2022-12-15T04:54:24.516Z,22.60
2022-12-15T04:56:51.109Z,21.00
2022-12-15T04:59:18.211Z,23.47
2022-12-15T05:01:44.939Z,21.87
2022-12-15T05:04:11.891Z,21.13
2022-12-15T05:06:38.608Z,22.97
2022-12-15T05:09:05.430Z,21.47
2022-12-15T05:11:32.026Z,21.77
2022-12-15T05:13:58.703Z,22.47
2022-12-15T05:16:25.393Z,20.33
2022-12-15T05:18:52.162Z,21.57
2022-12-15T05:21:18.868Z,23.77
2022-12-15T05:23:45.622Z,24.40
2022-12-15T05:26:12.229Z,24.50
2022-12-15T05:28:39.038Z,25.37
2022-12-15T05:31:06.950Z,21.40
2022-12-15T05:33:33.965Z,21.70
2022-12-15T05:36:00.856Z,22.17
2022-12-15T05:38:27.493Z,22.37
2022-12-15T05:40:57.519Z,23.43
2022-12-15T05:43:26.486Z,26.90
2022-12-15T05:45:53.611Z,26.27
2022-12-15T05:48:20.318Z,23.80
2022-12-15T05:50:46.965Z,22.07
2022-12-15T05:53:16.473Z,24.57
2022-12-15T05:55:43.079Z,21.20
2022-12-15T05:58:09.786Z,23.27
2022-12-15T06:00:36.618Z,23.27
2022-12-15T06:03:03.451Z,22.70
2022-12-15T06:05:30.147Z,26.37
2022-12-15T06:07:56.840Z,26.97
2022-12-15T06:10:23.477Z,22.33
2022-12-15T06:12:50.195Z,21.80
2022-12-15T06:15:16.895Z,22.57
2022-12-15T06:17:43.641Z,24.23
2022-12-15T06:20:16.553Z,23.93
2022-12-15T06:22:48.113Z,23.73
2022-12-15T06:25:16.746Z,21.13
2022-12-15T06:27:44.616Z,24.00
2022-12-15T06:30:11.642Z,24.00
2022-12-15T06:32:38.279Z,23.70
2022-12-15T06:35:05.474Z,23.10
2022-12-15T06:37:32.068Z,23.50
2022-12-15T06:39:58.828Z,24.13
2022-12-15T06:42:25.465Z,24.67
2022-12-15T06:44:52.142Z,23.80
2022-12-15T06:47:18.748Z,24.03
2022-12-15T06:49:45.553Z,21.03
2022-12-15T06:52:12.144Z,21.43
2022-12-15T06:54:38.816Z,22.07
2022-12-15T06:57:05.472Z,22.27
2022-12-15T06:59:32.169Z,24.53
2022-12-15T07:01:59.057Z,22.67
2022-12-15T07:04:26.026Z,22.40
2022-12-15T07:06:52.693Z,19.40
2022-12-15T07:09:19.425Z,24.53
2022-12-15T07:11:46.105Z,20.33
2022-12-15T07:14:12.761Z,23.93
2022-12-15T07:16:39.452Z,23.57
2022-12-15T07:19:06.283Z,22.43
2022-12-15T07:21:32.960Z,31.50
2022-12-15T07:24:00.617Z,26.67
2022-12-15T07:26:28.007Z,27.93
2022-12-15T07:28:54.750Z,26.13
2022-12-15T07:31:22.080Z,24.03
2022-12-15T07:33:49.229Z,22.03
2022-12-15T07:36:15.837Z,24.97
2022-12-15T07:38:42.607Z,24.87
2022-12-15T07:41:10.171Z,23.30
2022-12-15T07:43:37.981Z,23.10
2022-12-15T07:46:05.595Z,22.40
2022-12-15T07:48:33.601Z,23.87
2022-12-15T07:51:10.842Z,24.23
2022-12-15T07:53:42.982Z,22.53
2022-12-15T07:56:10.417Z,24.50
2022-12-15T07:58:38.648Z,24.10
2022-12-15T08:01:08.466Z,24.50
2022-12-15T08:03:37.150Z,22.53
2022-12-15T08:06:08.662Z,23.67
2022-12-15T08:08:35.996Z,24.97
2022-12-15T08:11:07.077Z,27.73
2022-12-15T08:16:21.904Z,25.37
2022-12-15T08:18:48.578Z,24.60
2022-12-15T08:21:15.341Z,30.27
2022-12-15T08:23:42.024Z,26.87
2022-12-15T08:26:11.444Z,25.67
2022-12-15T08:28:39.765Z,24.37
2022-12-15T08:31:12.085Z,22.13
2022-12-15T08:33:39.914Z,26.67
2022-12-15T08:36:09.881Z,26.90
2022-12-15T08:38:38.436Z,26.33
2022-12-15T08:41:14.331Z,27.17
2022-12-15T08:43:47.673Z,25.33
2022-12-15T08:46:20.186Z,24.97
2022-12-15T08:48:47.695Z,28.13
2022-12-15T08:51:15.333Z,25.63
2022-12-15T08:53:42.619Z,25.77
2022-12-15T08:56:12.257Z,24.40
2022-12-15T08:58:39.700Z,25.30
2022-12-15T09:01:27.752Z,26.17
2022-12-15T09:03:56.225Z,22.17
2022-12-15T09:06:26.594Z,22.57
2022-12-15T09:08:58.604Z,25.33
2022-12-15T09:11:26.190Z,28.63
2022-12-15T09:13:53.374Z,26.87
2022-12-15T09:16:21.473Z,25.90
2022-12-15T09:18:54.517Z,22.17
2022-12-15T09:21:23.363Z,25.47
2022-12-15T09:23:50.985Z,24.87
2022-12-15T09:26:19.175Z,24.50
2022-12-15T09:28:50.199Z,22.97
2022-12-15T09:31:21.771Z,23.37
2022-12-15T09:33:51.236Z,24.67
2022-12-15T09:36:18.253Z,23.67
2022-12-15T09:38:44.900Z,24.47
2022-12-15T09:41:14.600Z,22.07
2022-12-15T09:43:56.715Z,27.10
2022-12-15T09:46:42.149Z,22.90
2022-12-15T09:49:38.002Z,27.53
2022-12-15T09:52:13.927Z,24.13
2022-12-15T09:54:42.606Z,22.90
2022-12-15T09:57:37.639Z,21.23
2022-12-15T10:00:07.577Z,21.97
2022-12-15T10:02:46.455Z,20.53
2022-12-15T10:06:14.396Z,21.00
2022-12-15T10:08:40.455Z,21.97
2022-12-15T10:11:43.187Z,20.93
2022-12-15T10:14:30.805Z,20.50
2022-12-15T10:17:15.775Z,22.87
2022-12-15T10:19:50.158Z,20.40
2022-12-15T10:22:28.470Z,21.23
2022-12-15T10:25:11.484Z,22.10
2022-12-15T10:28:16.726Z,20.37
2022-12-15T10:31:26.444Z,22.50
2022-12-15T10:34:01.163Z,21.97
2022-12-15T10:36:27.849Z,24.67
2022-12-15T10:38:54.424Z,21.40
2022-12-15T10:41:23.838Z,19.10
2022-12-15T10:43:52.781Z,21.97
2022-12-15T10:46:27.961Z,18.97
2022-12-15T10:49:20.416Z,19.57
2022-12-15T10:51:58.409Z,19.67
2022-12-15T10:54:36.039Z,20.43
2022-12-15T10:57:21.065Z,21.40
2022-12-15T10:59:50.232Z,19.47
2022-12-15T11:02:29.870Z,17.93
2022-12-15T11:05:15.201Z,18.23
2022-12-15T11:07:54.438Z,20.00
2022-12-15T11:10:27.487Z,20.87
2022-12-15T11:12:58.889Z,20.13
2022-12-15T11:15:37.664Z,19.37
2022-12-15T11:18:15.601Z,21.77
2022-12-15T11:20:48.530Z,18.17
2022-12-15T11:23:46.738Z,20.73
2022-12-15T11:26:34.412Z,20.57
2022-12-15T11:29:23.958Z,19.83
2022-12-15T11:31:52.376Z,20.70
2022-12-15T11:34:25.895Z,19.63
2022-12-15T11:37:22.100Z,18.00
2022-12-15T11:39:57.790Z,22.30
2022-12-15T11:42:39.311Z,19.70
2022-12-15T11:45:38.513Z,19.07
2022-12-15T11:48:16.187Z,19.47
2022-12-15T11:50:54.043Z,17.47
2022-12-15T11:53:58.105Z,17.47
2022-12-15T11:56:29.058Z,20.37
2022-12-15T11:59:21.518Z,16.83
2022-12-15T12:04:43.779Z,16.57
2022-12-15T12:07:45.717Z,19.00
2022-12-15T12:10:38.706Z,20.43
2022-12-15T12:13:28.490Z,22.57
2022-12-15T12:16:23.131Z,24.07
2022-12-15T12:19:12.206Z,18.47
2022-12-15T12:22:00.402Z,19.87
2022-12-15T12:24:36.850Z,17.43
2022-12-15T12:27:22.026Z,18.13
2022-12-15T12:29:59.890Z,18.63
2022-12-15T12:32:50.785Z,20.73
2022-12-15T12:35:46.813Z,20.67
2022-12-15T12:38:27.059Z,19.30
2022-12-15T12:41:00.773Z,18.97
2022-12-15T12:43:32.131Z,20.20
2022-12-15T12:46:11.809Z,19.13
2022-12-15T12:48:57.600Z,20.27
2022-12-15T12:51:36.457Z,22.90
2022-12-15T12:54:30.719Z,17.83
2022-12-15T12:56:57.577Z,17.77
2022-12-15T12:59:38.247Z,17.00
2022-12-15T13:02:31.105Z,16.40
2022-12-15T13:04:57.838Z,14.47
2022-12-15T13:07:29.105Z,18.97
2022-12-15T13:10:08.096Z,17.17
2022-12-15T13:12:53.323Z,16.40
2022-12-15T13:15:29.794Z,15.07
2022-12-15T13:18:04.772Z,18.37
2022-12-15T13:20:33.587Z,16.40
2022-12-15T13:23:19.047Z,15.73
2022-12-15T13:25:57.612Z,17.20
2022-12-15T13:28:37.475Z,17.47
2022-12-15T13:31:16.738Z,17.97
2022-12-15T13:33:49.426Z,16.87
2022-12-15T13:36:38.002Z,16.13
2022-12-15T13:39:27.597Z,17.27
2022-12-15T13:42:31.509Z,19.47
2022-12-15T13:44:45.700Z,17.23
2022-12-15T13:47:22.536Z,20.07
2022-12-15T13:50:01.481Z,17.53
2022-12-15T13:53:17.710Z,15.53
2022-12-15T13:55:40.137Z,16.37
2022-12-15T13:58:15.347Z,16.20
2022-12-15T14:00:56.205Z,17.47
2022-12-15T14:03:23.554Z,19.77
2022-12-15T14:05:56.755Z,17.53
2022-12-15T14:08:26.844Z,15.27
2022-12-15T14:10:55.980Z,17.03
2022-12-15T14:13:24.841Z,18.33
2022-12-15T14:16:00.135Z,17.17
2022-12-15T14:18:34.128Z,16.90
2022-12-15T14:21:05.216Z,19.57
2022-12-15T14:23:58.021Z,18.27
2022-12-15T14:26:30.715Z,17.60
2022-12-15T14:29:02.159Z,16.77
2022-12-15T14:31:30.177Z,17.70
2022-12-15T14:34:00.101Z,18.70
2022-12-15T14:36:27.151Z,20.23
2022-12-15T14:39:00.298Z,18.00
2022-12-15T14:41:31.575Z,17.30
2022-12-15T14:44:31.536Z,18.23
2022-12-15T14:47:23.262Z,18.63
2022-12-15T14:49:51.367Z,19.87
2022-12-15T14:52:41.047Z,17.20
2022-12-15T14:55:32.416Z,17.03
2022-12-15T14:57:59.542Z,15.70
2022-12-15T15:00:26.125Z,18.43
2022-12-15T15:03:12.648Z,18.60
2022-12-15T15:03:18.317Z,17.27
2022-12-15T15:06:07.178Z,16.33
2022-12-15T15:08:47.612Z,16.63
2022-12-15T15:11:17.310Z,16.13
2022-12-15T15:13:45.155Z,20.20
2022-12-15T15:16:17.898Z,18.20
2022-12-15T15:18:50.067Z,17.20
2022-12-15T15:21:26.136Z,17.97
2022-12-15T15:24:12.214Z,19.03
2022-12-15T15:26:39.507Z,20.33
2022-12-15T15:29:32.101Z,22.43
2022-12-15T15:32:25.348Z,19.43
2022-12-15T15:34:52.024Z,17.77
2022-12-15T15:37:24.993Z,20.50
2022-12-15T15:39:54.719Z,20.67
2022-12-15T15:42:22.333Z,20.93
2022-12-15T15:44:49.767Z,20.03
2022-12-15T15:47:34.576Z,18.40
2022-12-15T15:50:01.327Z,19.43
2022-12-15T15:52:29.671Z,20.27
2022-12-15T15:54:56.583Z,18.20
2022-12-15T15:57:23.490Z,19.17
2022-12-15T15:59:50.227Z,22.13
2022-12-15T16:02:17.126Z,20.87
2022-12-15T16:04:44.275Z,22.90
2022-12-15T16:07:22.616Z,24.23
2022-12-15T16:09:50.166Z,27.97
2022-12-15T16:12:25.664Z,26.43
2022-12-15T16:14:52.437Z,25.93
2022-12-15T16:17:19.127Z,23.93
2022-12-15T16:19:46.014Z,24.30
2022-12-15T16:22:16.888Z,23.93
2022-12-15T16:24:43.773Z,22.67
2022-12-15T16:27:13.665Z,23.13
2022-12-15T16:29:41.032Z,23.53
2022-12-15T16:32:10.502Z,23.23
2022-12-15T16:34:37.308Z,22.27
2022-12-15T16:37:04.615Z,22.10
2022-12-15T16:39:34.017Z,22.00
2022-12-15T16:42:01.278Z,22.43
2022-12-15T16:44:29.658Z,24.27
2022-12-15T16:46:56.601Z,22.97
2022-12-15T16:49:23.588Z,24.80
2022-12-15T16:51:52.604Z,22.53
2022-12-15T16:54:28.836Z,24.90
2022-12-15T16:56:57.789Z,24.40
2022-12-15T16:59:34.287Z,22.77
2022-12-15T17:02:02.030Z,25.13
2022-12-15T17:04:28.758Z,25.07
2022-12-15T17:06:55.428Z,22.80
2022-12-15T17:09:24.562Z,23.57
2022-12-15T17:11:51.623Z,26.17
2022-12-15T17:14:18.326Z,25.27
2022-12-15T17:16:45.647Z,26.30
2022-12-15T17:19:16.299Z,26.33
2022-12-15T17:21:50.724Z,26.17
2022-12-15T17:24:20.351Z,29.93
2022-12-15T17:26:47.784Z,26.50
2022-12-15T17:29:18.960Z,26.40
2022-12-15T17:31:47.062Z,28.40
2022-12-15T17:34:25.612Z,25.47
2022-12-15T17:36:54.062Z,27.53
2022-12-15T17:39:22.353Z,24.80
2022-12-15T17:42:04.595Z,26.40
2022-12-15T17:44:36.675Z,21.57
2022-12-15T17:47:06.274Z,24.23
2022-12-15T17:49:36.560Z,22.63
2022-12-15T17:52:24.436Z,22.70
2022-12-15T17:54:51.551Z,22.30
2022-12-15T17:57:18.153Z,22.93
2022-12-15T17:59:44.928Z,23.40
2022-12-15T18:02:15.315Z,21.10
2022-12-15T18:04:43.185Z,21.00
2022-12-15T18:07:17.925Z,20.87
2022-12-15T18:09:44.936Z,21.03
2022-12-15T18:12:18.813Z,22.10
2022-12-15T18:14:45.551Z,22.57
2022-12-15T18:17:12.140Z,20.77
2022-12-15T18:19:39.002Z,20.37
2022-12-15T18:22:28.157Z,21.40
2022-12-15T18:24:55.059Z,23.37
2022-12-15T18:27:27.142Z,25.10
2022-12-15T18:29:54.228Z,24.27
2022-12-15T18:32:26.941Z,24.50
2022-12-15T18:34:54.776Z,21.93
2022-12-15T18:37:23.120Z,20.93
2022-12-15T18:39:50.038Z,22.07
2022-12-15T18:42:18.997Z,22.97
2022-12-15T18:44:52.340Z,22.40
2022-12-15T18:47:23.685Z,22.87
2022-12-15T18:49:50.766Z,23.47
2022-12-15T18:52:20.266Z,23.67
2022-12-15T18:54:48.422Z,22.37
2022-12-15T18:57:36.061Z,24.57
2022-12-15T19:00:17.930Z,21.87
2022-12-15T19:02:44.950Z,23.40
2022-12-15T19:05:11.724Z,22.93
2022-12-15T19:07:38.555Z,21.33
2022-12-15T19:10:05.622Z,32.20
2022-12-15T19:12:32.336Z,40.13
2022-12-15T19:14:58.949Z,31.80
2022-12-15T19:17:25.776Z,35.40
2022-12-15T19:19:52.360Z,31.87
2022-12-15T19:22:19.021Z,28.37
2022-12-15T19:24:46.009Z,26.00
2022-12-15T19:27:17.159Z,25.70
2022-12-15T19:29:44.293Z,26.80
2022-12-15T19:32:11.506Z,22.53
2022-12-15T19:34:38.334Z,24.07
2022-12-15T19:37:10.844Z,25.27
2022-12-15T19:39:37.719Z,23.87
2022-12-15T19:42:11.615Z,25.23
2022-12-15T19:44:39.858Z,23.73
2022-12-15T19:47:12.370Z,24.03
2022-12-15T19:49:41.065Z,24.03
2022-12-15T19:52:14.422Z,21.87
2022-12-15T19:54:42.977Z,24.67
2022-12-15T19:57:14.929Z,24.23
2022-12-15T19:59:42.002Z,24.87
2022-12-15T20:02:19.943Z,24.77
2022-12-15T20:04:49.775Z,27.10
2022-12-15T20:07:30.162Z,20.43
2022-12-15T20:09:56.956Z,22.97
2022-12-15T20:12:24.272Z,24.27
2022-12-15T20:14:51.362Z,22.87
2022-12-15T20:17:17.962Z,22.23
2022-12-15T20:19:44.644Z,21.67
2022-12-15T20:22:17.041Z,20.90
2022-12-15T20:24:45.127Z,19.67
2022-12-15T20:27:17.348Z,26.33
2022-12-15T20:29:44.476Z,22.30
2022-12-15T20:32:16.937Z,23.10
2022-12-15T20:34:43.822Z,23.00
2022-12-15T20:37:24.540Z,21.70
2022-12-15T20:39:56.924Z,24.57
2022-12-15T20:42:24.632Z,22.97
2022-12-15T20:44:51.450Z,23.30
2022-12-15T20:47:24.301Z,23.03
2022-12-15T20:49:52.906Z,24.93
2022-12-15T20:52:25.495Z,25.20
2022-12-15T20:54:53.861Z,27.57
2022-12-15T20:57:20.772Z,27.13
2022-12-15T20:59:48.774Z,25.13
2022-12-15T21:02:21.070Z,27.47
2022-12-15T21:04:48.961Z,26.60
2022-12-15T21:07:15.624Z,26.10
2022-12-15T21:09:42.325Z,27.87
2022-12-15T21:12:19.750Z,27.43
2022-12-15T21:14:50.240Z,25.17
2022-12-15T21:17:19.632Z,26.17
2022-12-15T21:19:46.637Z,27.57
2022-12-15T21:22:22.722Z,25.70
2022-12-15T21:24:55.176Z,27.83
2022-12-15T21:27:22.534Z,25.13
2022-12-15T21:29:52.533Z,25.90
2022-12-15T21:32:21.539Z,23.47
2022-12-15T21:34:48.131Z,21.70
2022-12-15T21:37:26.899Z,24.23
2022-12-15T21:39:54.341Z,22.50
2022-12-15T21:42:21.702Z,24.13
2022-12-15T21:44:48.465Z,26.37
2022-12-15T21:47:30.789Z,25.47
2022-12-15T21:49:57.517Z,24.73
2022-12-15T21:52:26.828Z,22.73
2022-12-15T21:54:53.516Z,23.83
2022-12-15T21:57:21.431Z,24.37
2022-12-15T21:59:48.144Z,22.73
2022-12-15T22:02:26.480Z,22.37
2022-12-15T22:04:53.444Z,22.57
2022-12-15T22:07:21.741Z,20.77
2022-12-15T22:09:48.579Z,20.47
2022-12-15T22:12:20.578Z,23.70
2022-12-15T22:14:47.462Z,21.50
2022-12-15T22:17:19.947Z,22.50
2022-12-15T22:19:46.891Z,22.07
2022-12-15T22:22:14.355Z,23.43
2022-12-15T22:24:41.231Z,21.63
2022-12-15T22:27:20.366Z,24.63
2022-12-15T22:29:48.514Z,21.60
2022-12-15T22:32:16.200Z,21.30
2022-12-15T22:34:43.103Z,22.43
2022-12-15T22:37:10.046Z,22.23
2022-12-15T22:39:36.796Z,20.70
2022-12-15T22:42:04.360Z,23.10
2022-12-15T22:44:35.404Z,21.97
2022-12-15T22:47:02.716Z,21.87
2022-12-15T22:49:34.309Z,22.67
2022-12-15T22:52:01.741Z,20.83
2022-12-15T22:54:31.175Z,24.37
2022-12-15T22:57:02.835Z,21.07
2022-12-15T22:59:40.946Z,21.67
2022-12-15T23:02:09.076Z,22.40
2022-12-15T23:04:36.042Z,21.03
2022-12-15T23:07:05.356Z,21.60
2022-12-15T23:09:32.175Z,23.30
2022-12-15T23:11:58.893Z,22.07
2022-12-15T23:14:25.523Z,22.10
2022-12-15T23:16:52.363Z,23.57
2022-12-15T23:19:21.557Z,21.50
2022-12-15T23:21:48.268Z,24.37
2022-12-15T23:24:14.935Z,22.77
2022-12-15T23:26:41.640Z,22.33
2022-12-15T23:29:08.240Z,23.03
2022-12-15T23:31:36.516Z,21.67
2022-12-15T23:34:05.571Z,23.67
2022-12-15T23:36:32.231Z,24.23
2022-12-15T23:38:59.503Z,23.83
2022-12-15T23:41:26.209Z,25.03
2022-12-15T23:43:52.816Z,22.57
2022-12-15T23:46:19.631Z,24.37
2022-12-15T23:48:46.310Z,22.67
2022-12-15T23:51:18.335Z,23.50
2022-12-15T23:53:46.876Z,24.53
2022-12-15T23:56:19.643Z,23.57
2022-12-15T23:58:47.651Z,21.70
